createdAt,value
2018-09-06T00:00:37.200Z,96748.19
2018-09-06T00:05:31.721Z,96756.68
2018-09-06T00:10:26.180Z,96749.51
2018-09-06T00:15:20.624Z,96744.21
2018-09-06T00:20:15.060Z,96743.67
2018-09-06T00:41:23.730Z,96739.68
2018-09-06T00:46:18.139Z,96742.30
2018-09-06T00:51:12.620Z,96733.30
2018-09-06T00:56:07.080Z,96738.33
2018-09-06T01:01:01.545Z,96733.30
2018-09-06T01:05:56.012Z,96717.92
2018-09-06T01:10:50.519Z,96716.32
2018-09-06T01:15:44.924Z,96721.89
2018-09-06T01:36:53.251Z,96717.06
2018-09-06T01:41:47.692Z,96717.59
2018-09-06T01:46:42.121Z,96717.05
2018-09-06T01:51:36.707Z,96710.92
2018-09-06T01:56:31.784Z,96703.80
2018-09-06T02:01:26.270Z,96703.02
2018-09-06T02:06:20.740Z,96706.17
2018-09-06T02:11:15.224Z,96708.53
2018-09-06T02:32:24.206Z,96701.82
2018-09-06T02:37:18.649Z,96703.98
2018-09-06T02:42:13.159Z,96698.90
2018-09-06T02:47:07.601Z,96686.43
2018-09-06T02:52:02.035Z,96694.06
2018-09-06T02:56:56.488Z,96685.29
2018-09-06T03:01:50.952Z,96678.41
2018-09-06T03:06:45.470Z,96672.59
2018-09-06T03:27:54.132Z,96663.81
2018-09-06T03:32:48.564Z,96667.70
2018-09-06T03:37:43.039Z,96665.30
2018-09-06T03:42:37.476Z,96665.80
2018-09-06T03:47:31.968Z,96665.79
2018-09-06T03:52:26.476Z,96659.70
2018-09-06T03:57:20.920Z,96655.71
2018-09-06T04:02:15.397Z,96659.41
2018-09-06T04:23:24.511Z,96671.76
2018-09-06T04:28:19.068Z,96666.95
2018-09-06T04:33:13.527Z,96659.77
2018-09-06T04:38:08.011Z,96658.45
2018-09-06T04:43:02.488Z,96654.98
2018-09-06T04:47:57.008Z,96660.29
2018-09-06T04:52:51.529Z,96662.66
2018-09-06T04:57:46.004Z,96669.02
2018-09-06T05:18:55.448Z,96673.84
2018-09-06T05:23:49.937Z,96680.53
2018-09-06T05:28:44.386Z,96667.16
2018-09-06T05:33:38.923Z,96671.27
2018-09-06T05:38:33.428Z,96665.47
2018-09-06T05:43:27.949Z,96660.58
2018-09-06T05:48:22.390Z,96661.70
2018-09-06T06:09:32.250Z,96639.21
2018-09-06T06:14:27.498Z,96633.64
2018-09-06T06:19:21.956Z,96633.47
2018-09-06T06:24:16.463Z,96636.85
2018-09-06T06:29:10.964Z,96640.94
2018-09-06T06:34:05.502Z,96651.74
2018-09-06T06:39:00.025Z,96644.64
2018-09-06T06:43:54.653Z,96643.19
2018-09-06T07:05:03.140Z,96646.50
2018-09-06T07:09:57.996Z,96640.86
2018-09-06T07:14:53.155Z,96644.98
2018-09-06T07:19:47.732Z,96644.69
2018-09-06T07:24:42.232Z,96640.34
2018-09-06T07:29:36.690Z,96646.48
2018-09-06T07:34:31.144Z,96634.21
2018-09-06T07:39:27.620Z,96635.16
2018-09-06T08:00:40.541Z,96631.48
2018-09-06T08:05:34.994Z,96632.94
2018-09-06T08:10:29.564Z,96630.08
2018-09-06T08:15:24.094Z,96623.14
2018-09-06T08:20:18.688Z,96620.02
2018-09-06T08:25:14.180Z,96614.58
2018-09-06T08:30:08.852Z,96614.52
2018-09-06T08:35:03.351Z,96618.75
2018-09-06T08:56:14.335Z,96624.65
2018-09-06T09:01:13.929Z,96617.37
2018-09-06T09:06:08.496Z,96617.37
2018-09-06T09:11:02.987Z,96605.67
2018-09-06T09:15:57.479Z,96594.47
2018-09-06T09:20:53.129Z,96587.44
2018-09-06T09:25:47.593Z,96581.11
2018-09-06T09:30:42.047Z,96586.37
2018-09-06T09:51:51.036Z,96572.80
2018-09-06T09:56:45.524Z,96575.41
2018-09-06T10:01:43.049Z,96573.02
2018-09-06T10:06:43.300Z,96566.97
2018-09-06T10:11:37.965Z,96560.23
2018-09-06T10:16:41.998Z,96556.39
2018-09-06T10:21:36.545Z,96551.03
2018-09-06T10:26:31.221Z,96547.02
2018-09-06T10:47:41.340Z,96506.55
2018-09-06T10:52:36.977Z,96511.09
2018-09-06T10:57:32.304Z,96503.62
2018-09-06T11:02:29.424Z,96497.52
2018-09-06T11:07:27.707Z,96500.27
2018-09-06T11:17:29.692Z,96497.83
2018-09-06T11:22:25.913Z,96490.02
2018-09-06T11:27:20.803Z,96486.73
2018-09-06T11:32:21.340Z,96491.56
2018-09-06T11:53:32.692Z,96464.32
2018-09-06T11:58:30.178Z,96451.34
2018-09-06T12:03:26.177Z,96457.46
2018-09-06T12:08:20.981Z,96456.91
2018-09-06T12:13:15.656Z,96451.08
2018-09-06T12:18:10.354Z,96444.28
2018-09-06T12:23:05.787Z,96435.08
2018-09-06T12:28:00.357Z,96431.69
2018-09-06T12:49:09.488Z,96428.97
2018-09-06T12:54:05.313Z,96417.84
2018-09-06T12:58:59.790Z,96421.11
2018-09-06T13:03:54.319Z,96426.48
2018-09-06T13:08:49.014Z,96423.86
2018-09-06T13:13:43.774Z,96415.59
2018-09-06T13:18:38.890Z,96419.83
2018-09-06T13:23:33.373Z,96425.87
2018-09-06T13:44:42.471Z,96417.14
2018-09-06T13:49:37.335Z,96410.83
2018-09-06T13:54:33.899Z,96418.16
2018-09-06T13:59:28.583Z,96414.55
2018-09-06T14:04:23.455Z,96400.88
2018-09-06T14:09:18.089Z,96393.97
2018-09-06T14:14:13.155Z,96383.72
2018-09-06T14:19:09.249Z,96378.88
2018-09-06T14:40:20.456Z,96359.88
2018-09-06T14:45:15.688Z,96364.60
2018-09-06T14:50:10.207Z,96369.29
2018-09-06T14:55:04.918Z,96357.95
2018-09-06T14:59:59.403Z,96348.62
2018-09-06T15:04:53.944Z,96358.16
2018-09-06T15:09:48.551Z,96345.50
2018-09-06T15:14:43.114Z,96350.64
2018-09-06T15:35:52.183Z,96335.96
2018-09-06T15:40:46.610Z,96340.94
2018-09-06T15:45:42.157Z,96341.51
2018-09-06T15:50:36.708Z,96329.98
2018-09-06T15:55:31.144Z,96327.30
2018-09-06T16:00:25.706Z,96336.55
2018-09-06T16:05:20.145Z,96338.11
2018-09-06T16:10:14.595Z,96337.24
2018-09-06T16:31:23.663Z,96333.38
2018-09-06T16:36:18.133Z,96333.33
2018-09-06T16:41:12.591Z,96335.86
2018-09-06T16:46:07.077Z,96329.42
2018-09-06T16:51:01.595Z,96325.91
2018-09-06T16:55:56.084Z,96327.33
2018-09-06T17:00:50.570Z,96329.39
2018-09-06T17:05:45.039Z,96322.51
2018-09-06T17:26:54.214Z,96355.22
2018-09-06T17:31:48.710Z,96362.77
2018-09-06T17:36:43.236Z,96373.16
2018-09-06T17:41:37.688Z,96369.11
2018-09-06T17:46:32.199Z,96373.22
2018-09-06T17:51:26.668Z,96389.29
2018-09-06T17:56:21.100Z,96398.06
2018-09-06T18:01:25.919Z,96405.48
2018-09-06T18:22:34.584Z,96423.11
2018-09-06T18:27:29.064Z,96416.28
2018-09-06T18:32:23.668Z,96434.56
2018-09-06T18:37:18.156Z,96443.48
2018-09-06T18:42:12.702Z,96445.74
2018-09-06T18:47:07.131Z,96453.08
2018-09-06T18:52:01.644Z,96453.20
2018-09-06T18:56:56.139Z,96465.89
2018-09-06T19:01:50.576Z,96460.98
2018-09-06T19:22:59.828Z,96469.75
2018-09-06T19:27:54.757Z,96475.86
2018-09-06T19:32:49.260Z,96478.73
2018-09-06T19:37:43.900Z,96478.63
2018-09-06T19:42:38.364Z,96484.31
2018-09-06T19:47:32.836Z,96494.45
2018-09-06T19:52:27.319Z,96499.09
2018-09-06T19:57:21.813Z,96497.03
2018-09-06T20:18:30.860Z,96507.33
2018-09-06T20:23:25.345Z,96511.54
2018-09-06T20:28:19.908Z,96503.69
2018-09-06T20:33:14.268Z,96507.23
2018-09-06T20:38:08.752Z,96508.63
2018-09-06T20:43:03.236Z,96509.05
2018-09-06T20:47:57.752Z,96507.20
2018-09-06T20:52:52.192Z,96526.68
2018-09-06T21:14:01.073Z,96526.00
2018-09-06T21:18:55.523Z,96534.08
2018-09-06T21:23:50.001Z,96530.91
2018-09-06T21:28:44.434Z,96530.22
2018-09-06T21:33:38.880Z,96531.59
2018-09-06T21:38:33.278Z,96541.47
2018-09-06T21:43:27.753Z,96548.39
2018-09-06T21:48:22.172Z,96548.61
2018-09-06T22:09:31.132Z,96558.09
2018-09-06T22:14:25.687Z,96561.64
2018-09-06T22:19:20.155Z,96557.59
2018-09-06T22:24:14.618Z,96557.63
2018-09-06T22:29:09.036Z,96560.11
2018-09-06T22:34:03.502Z,96564.80
2018-09-06T22:38:57.984Z,96568.59
2018-09-06T22:43:52.469Z,96569.80
2018-09-06T23:05:01.431Z,96583.37
2018-09-06T23:09:55.968Z,96592.13
2018-09-06T23:14:50.408Z,96587.94
2018-09-06T23:19:44.852Z,96590.88
2018-09-06T23:24:39.267Z,96593.63
2018-09-06T23:29:33.660Z,96592.83
2018-09-06T23:34:32.266Z,96590.94
2018-09-06T23:39:26.714Z,96585.74
